KLUK

Cincinnati Municipal Airport

Airport
ICAO code
KLUK
Summary
ICAO Region
NAM
ICAO Territory
Location

Cincinnati, Ohio,

Coordinates
39° 6' 12" N , 84° 25' 8" W
KCC
Dfa
Airport LOS
Parallel Runway Operation
Airport WX
Cumulonimbus
Metar
Observation
KLUK 081753Z 22009KT 10SM SCT041 BKN050 32/23 A3005 RMK AO2 SLP170 T03170228 10322 20228 58010
Station
Cincinnati, Cincinnati Municipal Airport Lunken Field
Date/Time
2022-08-08 17:53:00
Wind direction
220°
Wind speed
09 kts
Lowest cloud amount
scattered clouds
Temperature
31.7°C
Dew point
22.8°C
Humidity
59%
Weather condition
n/a

Description

Cincinnati Municipal Airport, also know as Lunken Field, is a public use airport located 5 km southeast of the central business district of Cincinnati, Ohio.

Climatology

Transition zone of humid “subtropical” climate (Köppen climate classification Cfa) and humid continental climate (Köppen climate classification Dfa) - characterized by hot, humid summers and cool winters. Significant amounts of precipitation occur in all seasons in most areas. Winter snowfall is associated with large storms that the westerlies steer from west to east. Most summer rainfall occurs during thunderstorms.

Runways

Designator Length Width Surface Rops
03L/21R 1159 30 ASP Yes/Yes
7/25 1563 30 ASP Yes/Yes
03R/21L 1860 46 ASP Yes/Yes

Airport map

Aerial View

SKYbrary Partners:

Safety knowledge contributed by: